Time;durP1;ratioP1;P1;durP2;ratioP2;P2;SDS_P1;SDS_P2;PMS_P1;PMS_P2;Temp;Humidity;BMP_temperature;BMP_pressure;BME280_temperature;BME280_humidity;BME280_pressure;Samples;Min_cycle;Max_cycle;Signal;HPM_P1;HPM_P2
2023/03/16 00:02:02;;;;;;;12.00;8.63;;;;;;;;;;5086927;27;20208;-64
2023/03/16 00:04:30;;;;;;;10.70;9.47;;;;;;;;;;5097926;27;20227;-63
2023/03/16 00:06:58;;;;;;;19.23;13.60;;;;;;;;;;5085775;27;20298;-63
2023/03/16 00:09:29;;;;;;;19.23;15.07;;;;;;;;;;5083217;27;20301;-62
2023/03/16 00:11:58;;;;;;;19.37;15.47;;;;;;;;;;5089328;27;20203;-63
2023/03/16 00:14:25;;;;;;;22.70;15.27;;;;;;;;;;5097295;27;20231;-63
2023/03/16 00:16:53;;;;;;;22.93;15.93;;;;;;;;;;5100683;28;20670;-63
2023/03/16 00:19:23;;;;;;;19.73;13.93;;;;;;;;;;5103257;27;20212;-63
2023/03/16 00:21:53;;;;;;;21.23;14.50;;;;;;;;;;5096000;27;20350;-62
2023/03/16 00:24:23;;;;;;;18.13;14.33;;;;;;;;;;5104727;28;20272;-63
2023/03/16 00:26:53;;;;;;;17.97;14.30;;;;;;;;;;5104628;28;20200;-62
2023/03/16 00:29:23;;;;;;;18.63;14.17;;;;;;;;;;5100416;27;20218;-63
2023/03/16 00:31:51;;;;;;;18.50;14.43;;;;;;;;;;5089638;27;20208;-63
2023/03/16 00:34:18;;;;;;;18.00;14.63;;;;;;;;;;5083600;27;20238;-64
2023/03/16 00:36:45;;;;;;;18.67;14.50;;;;;;;;;;5093815;27;20667;-62
2023/03/16 00:39:13;;;;;;;21.37;16.20;;;;;;;;;;5087550;27;20235;-62
2023/03/16 00:41:41;;;;;;;21.17;15.83;;;;;;;;;;5107062;27;20209;-63
2023/03/16 00:44:09;;;;;;;22.87;16.73;;;;;;;;;;5090878;27;20821;-62
2023/03/16 00:46:36;;;;;;;20.70;15.13;;;;;;;;;;5093736;27;20937;-64
2023/03/16 00:49:03;;;;;;;20.30;13.43;;;;;;;;;;5090540;27;20571;-62
2023/03/16 00:51:32;;;;;;;18.63;13.13;;;;;;;;;;5087655;27;20239;-63
2023/03/16 00:54:00;;;;;;;19.07;13.33;;;;;;;;;;5096171;27;20231;-63
2023/03/16 00:56:27;;;;;;;19.20;13.17;;;;;;;;;;5090942;27;20236;-63
2023/03/16 00:58:56;;;;;;;18.47;13.50;;;;;;;;;;5098920;27;20204;-65
2023/03/16 01:01:24;;;;;;;15.00;11.93;;;;;;;;;;5106634;27;20215;-63
2023/03/16 01:03:52;;;;;;;16.30;12.33;;;;;;;;;;5109245;27;20279;-64
2023/03/16 01:06:21;;;;;;;14.07;11.17;;;;;;;;;;5110287;27;20204;-62
2023/03/16 01:08:48;;;;;;;17.97;12.37;;;;;;;;;;5100934;27;20263;-62
2023/03/16 01:11:17;;;;;;;15.73;12.60;;;;;;;;;;5105249;27;20276;-63
2023/03/16 01:13:46;;;;;;;15.33;11.90;;;;;;;;;;5106468;28;20242;-63
2023/03/16 01:16:13;;;;;;;15.77;13.03;;;;;;;;;;5084748;27;20879;-62
2023/03/16 01:18:41;;;;;;;16.00;13.37;;;;;;;;;;5088942;27;20230;-63
2023/03/16 01:21:12;;;;;;;16.23;13.40;;;;;;;;;;5086165;27;20738;-63
2023/03/16 01:23:40;;;;;;;16.30;12.90;;;;;;;;;;5090682;27;20267;-63
2023/03/16 01:26:08;;;;;;;16.60;13.37;;;;;;;;;;5094056;27;21004;-63
2023/03/16 01:28:35;;;;;;;16.30;13.13;;;;;;;;;;5094083;27;20248;-63
2023/03/16 01:31:05;;;;;;;16.67;13.03;;;;;;;;;;5095144;27;20319;-64
2023/03/16 01:33:33;;;;;;;19.63;12.80;;;;;;;;;;5085362;27;20231;-63
2023/03/16 01:36:06;;;;;;;17.17;13.97;;;;;;;;;;5103472;27;20396;-63
2023/03/16 01:38:34;;;;;;;17.27;12.87;;;;;;;;;;5106788;27;20232;-62
2023/03/16 01:41:02;;;;;;;17.87;13.83;;;;;;;;;;5092443;27;20283;-62
2023/03/16 01:43:30;;;;;;;19.60;13.20;;;;;;;;;;5090190;27;20227;-63
2023/03/16 01:46:04;;;;;;;16.97;13.17;;;;;;;;;;5094329;27;20220;-64
2023/03/16 01:48:36;;;;;;;21.97;14.27;;;;;;;;;;5102845;27;20211;-63
2023/03/16 01:51:09;;;;;;;17.87;13.17;;;;;;;;;;5089083;27;20680;-63
2023/03/16 01:53:37;;;;;;;17.57;12.97;;;;;;;;;;5091955;27;20231;-64
2023/03/16 01:56:07;;;;;;;16.00;12.37;;;;;;;;;;5091514;27;20835;-62
2023/03/16 01:58:35;;;;;;;16.97;12.53;;;;;;;;;;5097742;27;20227;-63
2023/03/16 02:01:04;;;;;;;17.23;12.73;;;;;;;;;;5104666;27;20306;-62
2023/03/16 02:03:35;;;;;;;17.77;12.40;;;;;;;;;;5084122;27;20589;-64
2023/03/16 02:06:07;;;;;;;14.87;12.07;;;;;;;;;;5101715;27;20661;-64
2023/03/16 02:08:37;;;;;;;17.77;12.47;;;;;;;;;;5085976;27;20211;-64
2023/03/16 02:11:05;;;;;;;14.47;11.97;;;;;;;;;;5107703;27;20310;-64
2023/03/16 02:13:35;;;;;;;15.43;11.67;;;;;;;;;;5094194;27;20246;-64
2023/03/16 02:16:05;;;;;;;13.17;11.70;;;;;;;;;;5094884;27;20251;-64
2023/03/16 02:18:33;;;;;;;12.90;11.33;;;;;;;;;;5086164;27;20230;-64
2023/03/16 02:21:07;;;;;;;16.10;12.17;;;;;;;;;;5105228;27;20216;-64
2023/03/16 02:23:34;;;;;;;14.27;11.47;;;;;;;;;;5088766;27;20322;-64
2023/03/16 02:26:04;;;;;;;15.47;11.90;;;;;;;;;;5088805;27;20228;-64
2023/03/16 02:28:47;;;;;;;14.20;10.93;;;;;;;;;;5086323;27;20683;-64
2023/03/16 02:31:16;;;;;;;16.50;11.33;;;;;;;;;;5081767;27;20311;-64
2023/03/16 02:33:44;;;;;;;15.83;12.57;;;;;;;;;;5088925;27;20697;-64
2023/03/16 02:36:13;;;;;;;13.97;11.33;;;;;;;;;;5090990;27;20268;-64
2023/03/16 02:38:41;;;;;;;16.07;11.80;;;;;;;;;;5087247;27;20233;-64
2023/03/16 02:41:11;;;;;;;15.73;12.57;;;;;;;;;;5103731;27;20241;-64
2023/03/16 02:43:41;;;;;;;15.23;11.53;;;;;;;;;;5088058;27;20498;-64
2023/03/16 02:46:09;;;;;;;16.57;11.80;;;;;;;;;;5093444;27;20199;-65
2023/03/16 02:48:45;;;;;;;17.37;11.93;;;;;;;;;;5106108;27;20219;-63
2023/03/16 02:51:15;;;;;;;15.83;12.73;;;;;;;;;;5091255;27;20207;-64
2023/03/16 02:53:43;;;;;;;16.07;12.50;;;;;;;;;;5106290;27;20225;-64
2023/03/16 02:56:10;;;;;;;15.23;11.70;;;;;;;;;;5091437;27;20258;-64
2023/03/16 02:58:38;;;;;;;16.07;12.53;;;;;;;;;;5104033;28;20228;-64
2023/03/16 03:01:05;;;;;;;16.03;12.17;;;;;;;;;;5100334;28;20295;-64
2023/03/16 03:03:33;;;;;;;15.57;11.67;;;;;;;;;;5120788;27;20222;-64
2023/03/16 03:06:04;;;;;;;13.77;11.47;;;;;;;;;;5108021;27;20207;-64
2023/03/16 03:08:31;;;;;;;16.37;12.50;;;;;;;;;;5121788;27;20870;-64
2023/03/16 03:10:59;;;;;;;16.87;12.17;;;;;;;;;;5103188;27;20290;-64
2023/03/16 03:13:26;;;;;;;14.63;11.53;;;;;;;;;;5089572;27;20229;-64
2023/03/16 03:15:53;;;;;;;15.33;12.23;;;;;;;;;;5086284;27;20671;-63
2023/03/16 03:18:24;;;;;;;15.70;12.50;;;;;;;;;;5090926;27;20222;-65
2023/03/16 03:20:51;;;;;;;17.00;12.80;;;;;;;;;;5086373;27;20210;-64
2023/03/16 03:23:18;;;;;;;15.07;11.70;;;;;;;;;;5108305;27;20253;-63
2023/03/16 03:25:46;;;;;;;14.50;11.27;;;;;;;;;;5086291;27;22778;-63
2023/03/16 03:28:14;;;;;;;15.53;11.57;;;;;;;;;;5101912;27;20734;-63
2023/03/16 03:30:45;;;;;;;14.40;10.93;;;;;;;;;;5086523;27;20298;-64
2023/03/16 03:33:13;;;;;;;17.33;11.30;;;;;;;;;;5083680;27;20226;-62
2023/03/16 03:35:40;;;;;;;14.53;11.10;;;;;;;;;;5108582;27;20199;-63
2023/03/16 03:38:08;;;;;;;15.50;10.97;;;;;;;;;;5089444;27;22876;-64
2023/03/16 03:40:35;;;;;;;14.60;11.60;;;;;;;;;;5090883;27;20257;-64
2023/03/16 03:43:04;;;;;;;15.03;11.80;;;;;;;;;;5086165;27;20209;-63
2023/03/16 03:45:31;;;;;;;16.03;11.87;;;;;;;;;;5098363;27;20239;-64
2023/03/16 03:47:59;;;;;;;19.10;11.13;;;;;;;;;;5089413;27;20557;-63
2023/03/16 03:50:26;;;;;;;15.63;11.07;;;;;;;;;;5089900;27;20236;-65
2023/03/16 03:52:54;;;;;;;13.03;10.93;;;;;;;;;;5090542;28;20287;-64
2023/03/16 03:55:22;;;;;;;13.47;10.53;;;;;;;;;;5101483;27;20667;-63
2023/03/16 03:57:49;;;;;;;13.63;10.53;;;;;;;;;;5100208;27;20310;-63
2023/03/16 04:00:19;;;;;;;14.23;10.40;;;;;;;;;;5073532;27;20207;-63
2023/03/16 04:02:47;;;;;;;25.77;16.50;;;;;;;;;;5083590;27;20203;-64
2023/03/16 04:05:14;;;;;;;66.77;43.70;;;;;;;;;;5098501;27;20700;-63
2023/03/16 04:07:42;;;;;;;181.63;96.07;;;;;;;;;;5088957;27;20211;-64
2023/03/16 04:10:10;;;;;;;61.03;33.63;;;;;;;;;;5088015;27;20233;-64
2023/03/16 04:12:38;;;;;;;169.93;87.10;;;;;;;;;;5085017;27;20299;-65
2023/03/16 04:15:06;;;;;;;196.47;102.57;;;;;;;;;;5077324;27;20715;-65
2023/03/16 04:17:33;;;;;;;140.90;74.03;;;;;;;;;;5106908;27;20305;-65
2023/03/16 04:20:01;;;;;;;87.87;48.17;;;;;;;;;;5111334;27;20215;-65
2023/03/16 04:22:29;;;;;;;49.37;29.77;;;;;;;;;;5120199;27;20203;-65
2023/03/16 04:24:56;;;;;;;16.07;12.60;;;;;;;;;;5112458;27;20226;-63
2023/03/16 04:27:24;;;;;;;15.63;11.53;;;;;;;;;;5105123;27;20199;-62
2023/03/16 04:29:54;;;;;;;14.37;10.63;;;;;;;;;;5086600;27;20215;-64
2023/03/16 04:32:21;;;;;;;12.30;9.40;;;;;;;;;;5082485;27;20286;-63
2023/03/16 04:34:49;;;;;;;12.20;9.77;;;;;;;;;;5097383;27;20230;-64
2023/03/16 04:37:16;;;;;;;11.73;9.50;;;;;;;;;;5083219;27;20242;-63
2023/03/16 04:39:44;;;;;;;13.03;9.30;;;;;;;;;;5085769;27;20766;-64
2023/03/16 04:42:11;;;;;;;12.93;9.97;;;;;;;;;;5102680;27;20205;-63
2023/03/16 04:44:43;;;;;;;13.50;8.77;;;;;;;;;;5094502;27;20262;-65
2023/03/16 04:47:11;;;;;;;14.10;9.77;;;;;;;;;;5091064;27;20211;-63
2023/03/16 04:49:41;;;;;;;12.30;9.90;;;;;;;;;;5095104;27;20207;-64
2023/03/16 04:52:10;;;;;;;11.73;9.30;;;;;;;;;;5080565;27;20217;-63
2023/03/16 04:54:38;;;;;;;14.03;10.63;;;;;;;;;;5088735;27;20260;-63
2023/03/16 04:57:05;;;;;;;14.57;10.60;;;;;;;;;;5087567;27;20305;-64
2023/03/16 04:59:32;;;;;;;13.23;10.13;;;;;;;;;;5116687;27;20376;-63
2023/03/16 05:01:59;;;;;;;11.97;9.87;;;;;;;;;;5118971;27;20278;-65
2023/03/16 05:04:27;;;;;;;15.20;10.87;;;;;;;;;;5105871;27;20219;-65
2023/03/16 05:06:54;;;;;;;14.40;11.17;;;;;;;;;;5102601;27;20592;-64
2023/03/16 05:09:21;;;;;;;15.50;10.40;;;;;;;;;;5124274;27;20206;-63
2023/03/16 05:11:49;;;;;;;14.80;9.90;;;;;;;;;;5100109;27;20231;-64
2023/03/16 05:14:16;;;;;;;13.30;9.73;;;;;;;;;;5088527;27;20325;-63
2023/03/16 05:16:43;;;;;;;14.43;10.07;;;;;;;;;;5084184;27;20209;-62
2023/03/16 05:19:11;;;;;;;16.70;11.40;;;;;;;;;;5082029;27;20295;-63
2023/03/16 05:21:38;;;;;;;14.67;12.17;;;;;;;;;;5077709;27;20229;-62
2023/03/16 05:24:06;;;;;;;14.10;11.13;;;;;;;;;;5088463;27;20318;-63
2023/03/16 05:26:34;;;;;;;17.47;11.90;;;;;;;;;;5097737;27;20323;-64
2023/03/16 05:29:02;;;;;;;15.17;11.13;;;;;;;;;;5084258;27;20227;-62
2023/03/16 05:31:32;;;;;;;15.97;10.80;;;;;;;;;;5087830;27;20237;-64
2023/03/16 05:34:01;;;;;;;16.00;11.50;;;;;;;;;;5092417;27;20301;-64
2023/03/16 05:36:28;;;;;;;13.40;10.33;;;;;;;;;;5082755;27;20300;-63
2023/03/16 05:38:56;;;;;;;11.70;8.97;;;;;;;;;;5104533;27;20231;-65
2023/03/16 05:41:24;;;;;;;13.20;9.27;;;;;;;;;;5084791;27;20234;-63
2023/03/16 05:43:51;;;;;;;10.87;9.33;;;;;;;;;;5093023;27;20432;-63
2023/03/16 05:46:19;;;;;;;13.67;9.67;;;;;;;;;;5089395;27;20214;-63
2023/03/16 05:48:47;;;;;;;12.03;9.13;;;;;;;;;;5083200;27;20215;-64
2023/03/16 05:51:14;;;;;;;13.93;10.20;;;;;;;;;;5087105;27;20214;-64
2023/03/16 05:53:41;;;;;;;13.83;11.67;;;;;;;;;;5079400;27;20233;-64
2023/03/16 05:56:09;;;;;;;12.90;10.20;;;;;;;;;;5105185;27;20595;-64
2023/03/16 05:58:40;;;;;;;15.83;9.93;;;;;;;;;;5085180;27;20311;-64
2023/03/16 06:01:10;;;;;;;12.20;8.93;;;;;;;;;;5100523;27;20210;-64
2023/03/16 06:03:37;;;;;;;12.03;9.30;;;;;;;;;;5081399;27;20233;-63
2023/03/16 06:06:05;;;;;;;11.93;9.83;;;;;;;;;;5086343;27;20302;-64
2023/03/16 06:08:33;;;;;;;11.87;9.37;;;;;;;;;;5081984;27;20825;-63
2023/03/16 06:11:00;;;;;;;11.53;8.87;;;;;;;;;;5087753;27;21843;-63
2023/03/16 06:13:28;;;;;;;14.73;9.00;;;;;;;;;;5084467;27;20228;-63
2023/03/16 06:15:55;;;;;;;11.80;8.70;;;;;;;;;;5093902;27;20703;-63
2023/03/16 06:18:23;;;;;;;12.63;8.53;;;;;;;;;;5086673;27;20235;-63
2023/03/16 06:20:50;;;;;;;12.07;9.20;;;;;;;;;;5086485;27;20257;-63
2023/03/16 06:23:20;;;;;;;12.10;8.37;;;;;;;;;;5089349;27;20296;-63
2023/03/16 06:25:48;;;;;;;11.93;8.83;;;;;;;;;;5080866;27;21156;-64
2023/03/16 06:28:16;;;;;;;13.63;9.97;;;;;;;;;;5086621;27;20275;-64
2023/03/16 06:30:43;;;;;;;13.93;9.90;;;;;;;;;;5089036;27;20223;-64
2023/03/16 06:33:10;;;;;;;14.77;10.50;;;;;;;;;;5089482;27;20214;-63
2023/03/16 06:35:38;;;;;;;12.13;9.87;;;;;;;;;;5096469;27;20961;-64
2023/03/16 06:38:07;;;;;;;20.37;12.57;;;;;;;;;;5083768;27;20652;-63
2023/03/16 06:40:34;;;;;;;17.00;11.90;;;;;;;;;;5086716;27;20208;-63
2023/03/16 06:43:02;;;;;;;16.73;12.20;;;;;;;;;;5087145;27;20207;-64
2023/03/16 06:45:29;;;;;;;18.63;11.50;;;;;;;;;;5089101;27;20825;-63
2023/03/16 06:47:56;;;;;;;15.10;11.17;;;;;;;;;;5091328;27;20732;-63
2023/03/16 06:50:24;;;;;;;17.00;10.40;;;;;;;;;;5086871;27;20211;-63
2023/03/16 06:52:51;;;;;;;13.40;10.17;;;;;;;;;;5086303;27;20590;-63
2023/03/16 06:55:19;;;;;;;14.33;10.67;;;;;;;;;;5087973;27;20304;-63
2023/03/16 06:57:46;;;;;;;15.00;10.67;;;;;;;;;;5093363;27;20256;-63
2023/03/16 07:00:14;;;;;;;15.90;10.77;;;;;;;;;;5119858;27;20708;-63
2023/03/16 07:02:42;;;;;;;18.83;11.63;;;;;;;;;;5105481;27;20203;-63
2023/03/16 07:05:13;;;;;;;15.20;10.70;;;;;;;;;;5111609;27;20223;-63
2023/03/16 07:07:41;;;;;;;17.63;11.77;;;;;;;;;;5098018;27;20341;-63
2023/03/16 07:10:10;;;;;;;13.67;10.43;;;;;;;;;;5096447;27;21045;-62
2023/03/16 07:12:38;;;;;;;15.43;10.97;;;;;;;;;;5107921;27;20210;-63
2023/03/16 07:15:06;;;;;;;15.50;10.03;;;;;;;;;;5086255;27;20518;-62
2023/03/16 07:17:33;;;;;;;15.27;10.57;;;;;;;;;;5090642;27;20452;-63
2023/03/16 07:20:04;;;;;;;12.30;9.77;;;;;;;;;;5089011;27;20352;-63
2023/03/16 07:22:32;;;;;;;14.03;9.77;;;;;;;;;;5080205;27;20237;-63
2023/03/16 07:25:00;;;;;;;12.67;9.50;;;;;;;;;;5085595;27;20247;-63
2023/03/16 07:27:28;;;;;;;14.47;9.90;;;;;;;;;;5103990;27;20206;-63
2023/03/16 07:29:59;;;;;;;14.37;10.23;;;;;;;;;;5086297;27;20271;-63
2023/03/16 07:32:26;;;;;;;13.37;9.80;;;;;;;;;;5085152;27;20235;-63
2023/03/16 07:34:53;;;;;;;11.17;9.00;;;;;;;;;;5099396;27;20223;-64
2023/03/16 07:37:23;;;;;;;12.97;8.87;;;;;;;;;;5086261;27;20906;-63
2023/03/16 07:39:52;;;;;;;13.33;9.57;;;;;;;;;;5088102;27;20236;-63
2023/03/16 07:42:21;;;;;;;17.70;10.90;;;;;;;;;;5089409;27;20228;-63
2023/03/16 07:44:48;;;;;;;12.67;9.70;;;;;;;;;;5083100;27;20274;-62
2023/03/16 07:47:18;;;;;;;11.10;9.47;;;;;;;;;;5087012;27;20280;-63
2023/03/16 07:49:45;;;;;;;14.70;10.27;;;;;;;;;;5105448;27;20764;-63
2023/03/16 07:52:12;;;;;;;16.27;10.03;;;;;;;;;;5090047;27;20252;-63
2023/03/16 07:54:40;;;;;;;14.10;9.63;;;;;;;;;;5091634;27;20314;-62
2023/03/16 07:57:08;;;;;;;11.80;9.03;;;;;;;;;;5100120;27;20287;-63
2023/03/16 07:59:35;;;;;;;13.10;10.03;;;;;;;;;;5086320;27;20810;-64
2023/03/16 08:02:03;;;;;;;14.03;10.00;;;;;;;;;;5086441;27;20334;-64
2023/03/16 08:04:30;;;;;;;12.67;10.37;;;;;;;;;;5083978;27;20231;-64
2023/03/16 08:07:00;;;;;;;13.10;9.60;;;;;;;;;;5097362;27;20311;-63
2023/03/16 08:09:28;;;;;;;12.63;9.17;;;;;;;;;;5086121;27;20208;-63
2023/03/16 08:11:55;;;;;;;9.73;8.43;;;;;;;;;;5083676;27;20659;-64
2023/03/16 08:14:23;;;;;;;9.03;7.93;;;;;;;;;;5081514;27;20231;-62
2023/03/16 08:16:50;;;;;;;9.40;7.70;;;;;;;;;;5097739;27;20676;-62
2023/03/16 08:19:19;;;;;;;9.87;8.03;;;;;;;;;;5104663;28;20704;-63
2023/03/16 08:21:46;;;;;;;11.40;8.27;;;;;;;;;;5107337;28;20604;-63
2023/03/16 08:24:28;;;;;;;11.70;8.03;;;;;;;;;;5119478;27;20238;-64
2023/03/16 08:26:56;;;;;;;12.00;7.57;;;;;;;;;;5094230;27;20272;-64
2023/03/16 08:29:24;;;;;;;9.40;7.33;;;;;;;;;;5098788;27;20221;-64
2023/03/16 08:31:55;;;;;;;10.10;7.93;;;;;;;;;;5080600;27;20657;-64
2023/03/16 08:34:26;;;;;;;10.03;7.47;;;;;;;;;;5075358;27;20228;-62
2023/03/16 08:36:54;;;;;;;9.93;7.60;;;;;;;;;;5074866;28;20235;-63
2023/03/16 08:39:22;;;;;;;11.03;9.33;;;;;;;;;;5083138;27;20259;-63
2023/03/16 08:41:49;;;;;;;9.80;7.63;;;;;;;;;;5082610;27;20196;-63
2023/03/16 08:44:17;;;;;;;10.17;8.10;;;;;;;;;;5091853;27;20673;-63
2023/03/16 08:46:45;;;;;;;13.50;8.27;;;;;;;;;;5085692;27;20709;-64
2023/03/16 08:49:13;;;;;;;10.13;7.30;;;;;;;;;;5083489;27;20235;-64
2023/03/16 08:51:41;;;;;;;7.23;6.07;;;;;;;;;;5081350;27;20223;-63
2023/03/16 08:54:11;;;;;;;7.57;6.50;;;;;;;;;;5084882;27;21338;-63
2023/03/16 08:56:38;;;;;;;9.07;6.93;;;;;;;;;;5082693;27;20196;-63
2023/03/16 08:59:05;;;;;;;11.10;6.43;;;;;;;;;;5077042;27;20225;-63
2023/03/16 09:01:42;;;;;;;10.60;6.57;;;;;;;;;;5113697;27;20290;-63
2023/03/16 09:04:11;;;;;;;8.13;6.37;;;;;;;;;;5109630;27;20621;-62
2023/03/16 09:06:40;;;;;;;9.17;6.97;;;;;;;;;;5104747;27;20199;-64
2023/03/16 09:09:08;;;;;;;8.30;7.10;;;;;;;;;;5100101;27;20243;-63
2023/03/16 09:11:35;;;;;;;7.13;5.87;;;;;;;;;;5092229;27;20216;-65
2023/03/16 09:14:03;;;;;;;5.37;4.70;;;;;;;;;;5087163;27;20346;-64
2023/03/16 09:16:31;;;;;;;7.93;4.90;;;;;;;;;;5088153;27;20701;-65
2023/03/16 09:18:58;;;;;;;7.07;5.20;;;;;;;;;;5086417;27;20204;-63
2023/03/16 09:21:26;;;;;;;9.17;5.57;;;;;;;;;;5093351;27;20212;-63
2023/03/16 09:23:55;;;;;;;7.53;5.60;;;;;;;;;;5087263;27;20264;-63
2023/03/16 09:26:22;;;;;;;8.70;6.37;;;;;;;;;;5095335;27;20231;-63
2023/03/16 09:28:49;;;;;;;7.00;5.20;;;;;;;;;;5090519;27;20230;-65
2023/03/16 09:31:18;;;;;;;7.03;4.57;;;;;;;;;;5085314;27;20227;-65
2023/03/16 09:33:46;;;;;;;5.53;4.57;;;;;;;;;;5085315;27;20728;-65
2023/03/16 09:36:14;;;;;;;5.20;4.43;;;;;;;;;;5088391;27;20216;-65
2023/03/16 09:38:43;;;;;;;5.10;4.60;;;;;;;;;;5091894;27;20208;-63
2023/03/16 09:41:31;;;;;;;4.90;4.37;;;;;;;;;;5088859;27;20210;-63
2023/03/16 09:44:17;;;;;;;4.67;4.23;;;;;;;;;;5079547;27;20300;-63
2023/03/16 09:46:46;;;;;;;5.00;4.50;;;;;;;;;;5085296;27;20335;-65
2023/03/16 09:49:21;;;;;;;7.43;4.57;;;;;;;;;;5104809;27;20295;-64
2023/03/16 09:51:54;;;;;;;5.30;4.13;;;;;;;;;;5090617;27;20281;-65
2023/03/16 09:54:26;;;;;;;5.40;3.80;;;;;;;;;;5090881;27;20302;-63
2023/03/16 09:56:55;;;;;;;4.20;3.90;;;;;;;;;;5109646;27;20236;-65
2023/03/16 09:59:23;;;;;;;5.53;3.30;;;;;;;;;;5083931;27;20435;-65
2023/03/16 10:02:26;;;;;;;4.80;3.23;;;;;;;;;;5087205;27;20265;-63
2023/03/16 10:05:08;;;;;;;4.40;3.77;;;;;;;;;;5008532;28;20804;-63
2023/03/16 10:07:38;;;;;;;4.37;3.63;;;;;;;;;;5081131;27;20204;-65
2023/03/16 10:10:06;;;;;;;3.70;3.40;;;;;;;;;;5102764;27;20347;-65
2023/03/16 10:12:36;;;;;;;4.33;3.93;;;;;;;;;;5091106;27;20840;-63
2023/03/16 10:15:07;;;;;;;6.57;3.53;;;;;;;;;;5089209;27;20265;-63
2023/03/16 10:17:38;;;;;;;3.97;3.50;;;;;;;;;;5090932;27;20204;-63
2023/03/16 10:20:09;;;;;;;4.57;4.00;;;;;;;;;;5084757;27;20811;-63
2023/03/16 10:22:42;;;;;;;3.63;2.97;;;;;;;;;;5100464;27;20581;-64
2023/03/16 10:25:28;;;;;;;4.77;3.67;;;;;;;;;;5096093;27;20226;-64
2023/03/16 10:27:56;;;;;;;5.20;3.83;;;;;;;;;;5090180;27;20199;-64
2023/03/16 10:30:29;;;;;;;6.33;3.87;;;;;;;;;;5094662;27;20283;-64
2023/03/16 10:33:02;;;;;;;5.17;4.20;;;;;;;;;;5086185;27;20614;-64
2023/03/16 10:35:48;;;;;;;4.60;3.80;;;;;;;;;;5101091;27;20602;-65
2023/03/16 10:38:39;;;;;;;6.03;4.17;;;;;;;;;;5092575;27;20206;-64
2023/03/16 10:41:21;;;;;;;4.70;3.93;;;;;;;;;;5097137;27;20326;-65
2023/03/16 10:43:49;;;;;;;3.53;3.07;;;;;;;;;;5086312;27;20253;-65
2023/03/16 10:46:16;;;;;;;3.00;2.70;;;;;;;;;;5085370;27;20291;-64
2023/03/16 10:48:59;;;;;;;4.37;2.93;;;;;;;;;;5090816;27;20256;-64
2023/03/16 10:51:36;;;;;;;5.67;3.10;;;;;;;;;;5091538;27;20199;-65
2023/03/16 10:54:24;;;;;;;4.90;3.40;;;;;;;;;;5104912;27;20287;-65
2023/03/16 10:56:56;;;;;;;4.70;3.40;;;;;;;;;;5115182;27;20683;-65
2023/03/16 10:59:29;;;;;;;4.27;3.10;;;;;;;;;;5096757;27;20211;-63
2023/03/16 11:01:57;;;;;;;2.40;2.20;;;;;;;;;;5099742;27;20232;-63
2023/03/16 11:04:25;;;;;;;3.53;2.77;;;;;;;;;;5099036;27;20223;-64
2023/03/16 11:06:54;;;;;;;3.93;3.37;;;;;;;;;;5097331;27;20203;-64
2023/03/16 11:09:26;;;;;;;5.37;3.70;;;;;;;;;;5089553;27;20227;-63
2023/03/16 11:11:53;;;;;;;4.23;3.57;;;;;;;;;;5087197;27;20260;-63
2023/03/16 11:14:22;;;;;;;3.60;2.70;;;;;;;;;;5079199;27;20313;-63
2023/03/16 11:17:02;;;;;;;5.60;3.73;;;;;;;;;;5099356;27;20298;-65
2023/03/16 11:19:34;;;;;;;3.70;3.40;;;;;;;;;;5095605;27;20326;-65
2023/03/16 11:22:19;;;;;;;4.90;3.73;;;;;;;;;;5116236;27;20195;-64
2023/03/16 11:24:52;;;;;;;3.80;3.40;;;;;;;;;;5109637;27;20249;-63
2023/03/16 11:27:32;;;;;;;4.13;3.53;;;;;;;;;;5102362;27;20624;-64
2023/03/16 11:30:08;;;;;;;5.07;4.37;;;;;;;;;;5104284;27;20294;-64
2023/03/16 11:32:36;;;;;;;4.20;3.87;;;;;;;;;;5102136;28;20252;-65
2023/03/16 11:35:13;;;;;;;3.93;3.47;;;;;;;;;;5103195;27;20319;-64
2023/03/16 11:37:50;;;;;;;4.50;3.90;;;;;;;;;;5112664;27;20704;-65
2023/03/16 11:40:32;;;;;;;4.30;3.87;;;;;;;;;;5104347;27;20260;-65
2023/03/16 11:43:13;;;;;;;4.20;3.67;;;;;;;;;;5100300;27;20711;-65
2023/03/16 11:45:49;;;;;;;4.33;3.07;;;;;;;;;;5101590;27;20282;-65
2023/03/16 11:48:24;;;;;;;3.40;3.07;;;;;;;;;;5102653;27;20649;-65
2023/03/16 11:51:04;;;;;;;3.40;3.10;;;;;;;;;;5099779;28;20257;-65
2023/03/16 11:53:35;;;;;;;4.63;3.10;;;;;;;;;;5101612;28;20227;-65
2023/03/16 11:56:18;;;;;;;4.40;3.30;;;;;;;;;;5095905;27;21341;-65
2023/03/16 11:58:49;;;;;;;3.27;2.97;;;;;;;;;;5089722;27;20304;-65
2023/03/16 12:01:22;;;;;;;4.87;2.87;;;;;;;;;;5095779;28;20295;-65
2023/03/16 12:04:09;;;;;;;3.07;2.70;;;;;;;;;;5091135;27;20231;-65
2023/03/16 12:06:39;;;;;;;3.70;3.30;;;;;;;;;;5105486;27;20759;-64
2023/03/16 12:09:13;;;;;;;3.67;3.30;;;;;;;;;;5105140;27;20550;-64
2023/03/16 12:11:51;;;;;;;3.63;3.33;;;;;;;;;;5083520;27;20288;-63
2023/03/16 12:14:41;;;;;;;3.67;3.37;;;;;;;;;;5091153;28;20230;-63
2023/03/16 12:17:12;;;;;;;3.40;3.10;;;;;;;;;;5097320;27;20241;-65
2023/03/16 12:19:50;;;;;;;3.37;3.07;;;;;;;;;;5108271;28;20203;-64
2023/03/16 12:22:27;;;;;;;4.00;3.10;;;;;;;;;;5114364;27;20511;-64
2023/03/16 12:24:55;;;;;;;2.90;2.53;;;;;;;;;;5121592;27;20761;-64
2023/03/16 12:27:25;;;;;;;3.07;2.40;;;;;;;;;;5108295;27;20351;-63
2023/03/16 12:30:02;;;;;;;3.50;2.80;;;;;;;;;;5101179;27;20220;-63
2023/03/16 12:32:30;;;;;;;3.03;2.50;;;;;;;;;;5081964;27;20435;-65
2023/03/16 12:35:08;;;;;;;4.13;3.27;;;;;;;;;;5093396;27;20234;-65
2023/03/16 12:37:44;;;;;;;2.70;2.50;;;;;;;;;;5107042;27;20229;-65
2023/03/16 12:40:39;;;;;;;3.70;2.77;;;;;;;;;;5090227;27;20873;-64
2023/03/16 12:43:14;;;;;;;2.40;2.20;;;;;;;;;;5092527;27;20279;-65
2023/03/16 12:45:45;;;;;;;4.13;2.20;;;;;;;;;;5098253;27;20221;-65
2023/03/16 12:48:20;;;;;;;2.97;2.23;;;;;;;;;;5099328;27;20661;-65
2023/03/16 12:50:55;;;;;;;4.03;3.63;;;;;;;;;;5090282;27;20310;-65
2023/03/16 12:53:41;;;;;;;3.77;3.37;;;;;;;;;;5113336;27;20227;-65
2023/03/16 12:56:09;;;;;;;3.60;2.97;;;;;;;;;;5088912;27;20199;-65
2023/03/16 12:58:39;;;;;;;3.30;2.70;;;;;;;;;;5096819;27;20235;-65
2023/03/16 13:01:10;;;;;;;2.80;2.50;;;;;;;;;;5104913;28;20314;-63
2023/03/16 13:03:38;;;;;;;5.33;2.90;;;;;;;;;;5105655;27;20254;-63
2023/03/16 13:06:05;;;;;;;2.93;2.73;;;;;;;;;;5113369;27;20256;-65
2023/03/16 13:08:44;;;;;;;3.10;2.90;;;;;;;;;;5103482;27;20642;-63
2023/03/16 13:11:13;;;;;;;3.97;3.57;;;;;;;;;;5110746;27;20299;-65
2023/03/16 13:13:48;;;;;;;5.60;3.47;;;;;;;;;;5089813;27;20255;-65
2023/03/16 13:16:24;;;;;;;4.67;3.60;;;;;;;;;;5094676;27;20237;-64
2023/03/16 13:18:52;;;;;;;3.97;3.57;;;;;;;;;;5087925;27;20211;-65
2023/03/16 13:21:21;;;;;;;3.87;3.40;;;;;;;;;;5090840;27;20475;-66
2023/03/16 13:23:53;;;;;;;4.00;3.63;;;;;;;;;;5092872;27;20215;-65
2023/03/16 13:26:40;;;;;;;4.17;3.80;;;;;;;;;;5085014;27;20217;-65
2023/03/16 13:29:35;;;;;;;3.80;3.50;;;;;;;;;;5087971;27;20753;-65
2023/03/16 13:32:13;;;;;;;5.67;3.33;;;;;;;;;;5091980;27;20762;-65
2023/03/16 13:34:49;;;;;;;3.80;3.33;;;;;;;;;;5085421;27;20219;-65
2023/03/16 13:37:19;;;;;;;4.13;3.33;;;;;;;;;;5097869;27;20210;-64
2023/03/16 13:39:53;;;;;;;4.77;3.87;;;;;;;;;;5097116;27;20283;-65
2023/03/16 13:42:22;;;;;;;5.00;4.13;;;;;;;;;;5106673;27;20563;-65
2023/03/16 13:45:06;;;;;;;5.93;4.20;;;;;;;;;;5091022;27;20225;-65
2023/03/16 13:47:33;;;;;;;6.67;4.70;;;;;;;;;;5094273;27;20208;-64
2023/03/16 13:50:01;;;;;;;5.37;4.40;;;;;;;;;;5104225;27;20227;-65
2023/03/16 13:52:33;;;;;;;5.30;4.17;;;;;;;;;;5091328;27;20695;-63
2023/03/16 13:55:21;;;;;;;6.80;4.67;;;;;;;;;;5091681;27;20231;-63
2023/03/16 13:57:48;;;;;;;7.63;6.00;;;;;;;;;;5089549;27;20631;-64
2023/03/16 14:00:21;;;;;;;5.57;3.93;;;;;;;;;;5088550;27;20701;-64
2023/03/16 14:02:52;;;;;;;4.37;3.90;;;;;;;;;;5102446;27;20232;-63
2023/03/16 14:05:24;;;;;;;4.07;3.77;;;;;;;;;;5095864;27;20310;-64
2023/03/16 14:07:53;;;;;;;5.47;4.50;;;;;;;;;;5088624;27;20235;-65
2023/03/16 14:10:21;;;;;;;5.13;4.50;;;;;;;;;;5089406;27;20974;-64
2023/03/16 14:12:52;;;;;;;4.97;4.57;;;;;;;;;;5094100;27;20207;-64
2023/03/16 14:15:20;;;;;;;5.60;4.30;;;;;;;;;;5097806;27;20596;-63
2023/03/16 14:17:48;;;;;;;4.90;4.40;;;;;;;;;;5106424;27;20231;-64
2023/03/16 14:20:22;;;;;;;4.50;4.05;;;;;;;;;;5107729;27;20223;-63
2023/03/16 14:22:51;;;;;;;6.22;4.55;;;;;;;;;;5098662;27;20227;-64
2023/03/16 14:25:22;;;;;;;5.88;4.45;;;;;;;;;;5105238;27;20223;-64
2023/03/16 14:27:57;;;;;;;5.05;3.92;;;;;;;;;;5102024;27;20231;-65
2023/03/16 14:30:26;;;;;;;8.82;6.75;;;;;;;;;;5099130;27;20676;-65
2023/03/16 14:33:05;;;;;;;5.80;4.88;;;;;;;;;;5096547;27;20239;-65
2023/03/16 14:35:40;;;;;;;7.45;5.00;;;;;;;;;;5087248;27;20301;-65
2023/03/16 14:38:43;;;;;;;6.65;4.82;;;;;;;;;;5077712;27;20225;-65
2023/03/16 14:41:27;;;;;;;8.65;5.22;;;;;;;;;;4998977;28;20704;-65
2023/03/16 14:43:56;;;;;;;11.20;7.55;;;;;;;;;;5096097;27;20741;-64
2023/03/16 14:46:28;;;;;;;13.00;8.02;;;;;;;;;;5088245;27;20291;-63
2023/03/16 14:49:06;;;;;;;5.18;4.35;;;;;;;;;;5106029;27;20216;-65